Time;durP1;ratioP1;P1;durP2;ratioP2;P2;SDS_P1;SDS_P2;PMS_P1;PMS_P2;Temp;Humidity;BMP_temperature;BMP_pressure;BME280_temperature;BME280_humidity;BME280_pressure;Samples;Min_cycle;Max_cycle;Signal;HPM_P1;HPM_P2
2023/02/24 00:02:51;;;;;;;1999.90;999.90;;;6.70;99.90;;;;;;5095274;28;20077;-73
2023/02/24 00:05:17;;;;;;;1999.90;999.90;;;6.70;99.90;;;;;;5095146;28;20099;-80
2023/02/24 00:07:43;;;;;;;1999.90;999.90;;;6.80;99.90;;;;;;5095254;28;20114;-73
2023/02/24 00:10:10;;;;;;;1999.90;999.90;;;6.80;99.90;;;;;;5095509;28;20028;-81
2023/02/24 00:12:35;;;;;;;1999.90;999.90;;;6.80;99.90;;;;;;5095056;28;20036;-73
2023/02/24 00:15:01;;;;;;;1999.90;999.90;;;6.80;99.90;;;;;;5095146;28;20112;-73
2023/02/24 00:17:29;;;;;;;1999.90;999.90;;;6.80;99.90;;;;;;5092321;28;20024;-81
2023/02/24 00:19:55;;;;;;;1999.90;999.90;;;6.80;99.90;;;;;;5075134;28;20455;-80
2023/02/24 00:22:21;;;;;;;1999.90;999.90;;;6.80;99.90;;;;;;5074913;28;20104;-81
2023/02/24 00:24:46;;;;;;;1999.90;999.90;;;6.80;99.90;;;;;;5074561;28;20520;-73
2023/02/24 00:27:12;;;;;;;1999.90;999.90;;;6.80;99.90;;;;;;5074634;28;20118;-80
2023/02/24 00:29:39;;;;;;;1999.90;999.90;;;6.80;99.90;;;;;;5074547;28;20025;-79
2023/02/24 00:32:06;;;;;;;1999.90;999.90;;;6.90;99.90;;;;;;5073536;28;20427;-78
2023/02/24 00:34:35;;;;;;;1999.90;999.90;;;6.80;99.90;;;;;;5074631;28;20025;-75
2023/02/24 00:37:02;;;;;;;1999.90;999.90;;;6.80;99.90;;;;;;5074303;28;20070;-71
2023/02/24 00:39:34;;;;;;;1999.90;999.90;;;6.80;99.90;;;;;;5083199;28;20023;-72
2023/02/24 00:42:05;;;;;;;1999.90;999.90;;;6.80;99.90;;;;;;5094956;28;20021;-71
2023/02/24 00:44:33;;;;;;;1999.90;999.90;;;6.70;99.90;;;;;;5094563;28;20024;-71
2023/02/24 00:47:00;;;;;;;1999.90;999.90;;;6.70;99.90;;;;;;5094197;28;20043;-70
2023/02/24 00:49:26;;;;;;;1999.90;999.90;;;6.70;99.90;;;;;;5094253;28;20024;-75
2023/02/24 00:51:54;;;;;;;1999.90;999.90;;;6.70;99.90;;;;;;5094341;28;20404;-71
2023/02/24 00:54:23;;;;;;;1999.90;999.90;;;6.70;99.90;;;;;;5094247;28;20035;-71
2023/02/24 00:56:49;;;;;;;1999.90;999.90;;;6.70;99.90;;;;;;5094242;28;20020;-75
2023/02/24 00:59:17;;;;;;;1999.90;999.90;;;6.70;99.90;;;;;;5094009;28;20086;-74
2023/02/24 01:01:44;;;;;;;1999.90;999.90;;;6.70;99.90;;;;;;5094098;28;20020;-71
2023/02/24 01:04:11;;;;;;;1999.90;999.90;;;6.80;99.90;;;;;;5094563;28;20462;-71
2023/02/24 01:06:43;;;;;;;1999.90;999.90;;;6.80;99.90;;;;;;5094433;28;20016;-71
2023/02/24 01:09:11;;;;;;;1999.90;999.90;;;6.80;99.90;;;;;;5093267;28;20035;-76
2023/02/24 01:14:39;;;;;;;1999.90;999.90;;;6.80;99.90;;;;;;5051720;28;20464;-72
2023/02/24 01:17:06;;;;;;;1999.90;999.90;;;6.90;99.90;;;;;;5084530;28;20036;-72
2023/02/24 01:19:33;;;;;;;1999.90;999.90;;;6.90;99.90;;;;;;5088829;28;20021;-72
2023/02/24 01:22:02;;;;;;;1999.90;999.90;;;7.00;99.90;;;;;;5073826;28;20028;-72
2023/02/24 01:24:32;;;;;;;1999.90;999.90;;;7.00;99.90;;;;;;5073789;28;20031;-77
2023/02/24 01:26:58;;;;;;;1999.90;999.90;;;7.00;99.90;;;;;;5073702;28;20060;-73
2023/02/24 01:29:26;;;;;;;1999.90;999.90;;;7.00;99.90;;;;;;5073301;28;20075;-78
2023/02/24 01:31:56;;;;;;;1999.90;999.90;;;7.00;99.90;;;;;;5073734;28;20103;-73
2023/02/24 01:34:23;;;;;;;1999.90;999.90;;;7.10;99.90;;;;;;5073659;28;20044;-73
2023/02/24 01:36:48;;;;;;;1999.90;999.90;;;7.10;99.90;;;;;;5073274;28;20036;-72
2023/02/24 01:39:14;;;;;;;1999.90;999.90;;;7.20;99.90;;;;;;5084250;28;20020;-79
2023/02/24 01:41:43;;;;;;;1999.90;999.90;;;7.20;99.90;;;;;;5093597;28;20103;-73
2023/02/24 01:44:16;;;;;;;1999.90;999.90;;;7.20;99.90;;;;;;5093876;28;20035;-80
2023/02/24 01:46:48;;;;;;;1999.90;999.90;;;7.30;99.90;;;;;;5093081;28;20471;-73
2023/02/24 01:49:39;;;;;;;1999.90;999.90;;;7.30;99.90;;;;;;5093255;28;20024;-79
2023/02/24 01:52:21;;;;;;;1999.90;999.90;;;7.30;99.90;;;;;;5093509;28;20032;-78
2023/02/24 01:54:56;;;;;;;1999.90;999.90;;;7.40;99.90;;;;;;5093307;28;20117;-80
2023/02/24 01:57:23;;;;;;;1999.90;999.90;;;7.40;99.90;;;;;;5093023;28;20040;-73
2023/02/24 01:59:52;;;;;;;1999.90;999.90;;;7.40;99.90;;;;;;5093163;28;20532;-74
2023/02/24 02:02:20;;;;;;;1999.90;999.90;;;7.40;99.90;;;;;;5093273;28;20452;-73
2023/02/24 02:04:50;;;;;;;1999.90;999.90;;;7.50;99.90;;;;;;5093068;28;20024;-73
2023/02/24 02:07:20;;;;;;;1999.90;999.90;;;7.50;99.90;;;;;;5093256;28;20059;-72
2023/02/24 02:09:47;;;;;;;1999.90;999.90;;;7.50;99.90;;;;;;5093030;28;20034;-72
2023/02/24 02:12:13;;;;;;;1999.90;999.90;;;7.60;99.90;;;;;;5093101;28;20021;-72
2023/02/24 02:14:42;;;;;;;1999.90;999.90;;;7.60;99.90;;;;;;5092745;28;20027;-72
2023/02/24 02:17:32;;;;;;;1999.90;999.90;;;7.60;99.90;;;;;;5092605;28;20166;-78
2023/02/24 02:20:16;;;;;;;1999.90;999.90;;;7.70;99.90;;;;;;5071864;28;20386;-73
2023/02/24 02:23:01;;;;;;;1999.90;999.90;;;7.80;99.90;;;;;;5072468;28;20036;-73
2023/02/24 02:25:54;;;;;;;1999.90;999.90;;;7.90;99.90;;;;;;5072342;28;20523;-72
2023/02/24 02:29:07;;;;;;;1999.90;999.90;;;8.00;99.90;;;;;;5072441;28;20021;-72
2023/02/24 02:32:02;;;;;;;1999.90;999.90;;;8.10;99.90;;;;;;5072422;28;20154;-78
2023/02/24 02:34:35;;;;;;;1999.90;999.90;;;8.20;99.90;;;;;;5072440;28;20028;-77
2023/02/24 02:37:04;;;;;;;;;;;8.30;99.90;;;;;;5073018;28;20093;-72
2023/02/24 02:40:00;;;;;;;1999.90;999.90;;;8.30;99.90;;;;;;5085589;28;19911;-72
2023/02/24 02:42:29;;;;;;;1999.90;999.90;;;8.30;99.90;;;;;;5091279;28;20032;-79
2023/02/24 02:45:12;;;;;;;1999.90;999.90;;;8.40;99.90;;;;;;5092496;28;20404;-73
2023/02/24 02:47:49;;;;;;;1999.90;999.90;;;8.50;99.90;;;;;;5092229;28;20044;-78
2023/02/24 02:50:22;;;;;;;1999.90;999.90;;;8.50;99.90;;;;;;5092614;28;20028;-73
2023/02/24 02:52:57;;;;;;;1999.90;999.90;;;8.50;99.90;;;;;;5092068;28;20024;-79
2023/02/24 02:55:45;;;;;;;1999.90;999.90;;;8.60;99.90;;;;;;5092174;28;20032;-73
2023/02/24 02:58:16;;;;;;;1999.90;999.90;;;8.60;99.90;;;;;;5092571;28;20024;-80
2023/02/24 03:00:56;;;;;;;1999.90;999.90;;;8.60;99.90;;;;;;5092193;28;20035;-74
2023/02/24 03:03:25;;;;;;;1999.90;999.90;;;8.60;99.90;;;;;;5091982;28;20043;-72
2023/02/24 03:06:00;;;;;;;1999.90;999.90;;;8.70;99.90;;;;;;5092125;28;20054;-73
2023/02/24 03:08:33;;;;;;;1999.90;999.90;;;8.80;99.90;;;;;;5092417;28;20032;-73
2023/02/24 03:11:00;;;;;;;1999.90;999.90;;;8.80;99.90;;;;;;5092059;28;20488;-77
2023/02/24 03:13:30;;;;;;;1999.90;999.90;;;8.90;99.90;;;;;;5092016;28;20084;-72
2023/02/24 03:16:01;;;;;;;1999.90;999.90;;;9.00;99.90;;;;;;5092273;28;20020;-72
2023/02/24 03:18:31;;;;;;;1999.90;999.90;;;9.10;99.90;;;;;;5091812;28;20480;-72
2023/02/24 03:21:10;;;;;;;1999.90;999.90;;;9.10;99.90;;;;;;5092107;28;20067;-72
2023/02/24 03:23:49;;;;;;;1999.90;999.90;;;9.20;99.90;;;;;;5092002;28;20024;-80
2023/02/24 03:26:40;;;;;;;1999.90;999.90;;;9.20;99.90;;;;;;5092247;28;20032;-72
2023/02/24 03:29:11;;;;;;;1999.90;999.90;;;9.20;99.90;;;;;;5080799;28;20044;-73
2023/02/24 03:32:03;;;;;;;1999.90;999.90;;;9.20;99.90;;;;;;5094271;28;20488;-73
2023/02/24 03:35:00;;;;;;;1999.90;999.90;;;9.30;99.90;;;;;;5096100;28;20020;-79
2023/02/24 03:37:28;;;;;;;1999.90;999.90;;;9.30;99.90;;;;;;5095589;28;20032;-78
2023/02/24 03:39:57;;;;;;;1999.90;999.90;;;9.40;99.90;;;;;;5095773;28;20020;-72
2023/02/24 03:42:27;;;;;;;1999.90;999.90;;;9.40;99.90;;;;;;5095842;28;20021;-78
2023/02/24 03:44:57;;;;;;;1999.90;999.90;;;9.40;99.90;;;;;;5095594;28;20024;-72
2023/02/24 03:47:23;;;;;;;1999.90;999.90;;;9.40;99.90;;;;;;5095376;28;20081;-72
2023/02/24 03:49:49;;;;;;;1999.90;999.90;;;9.40;99.90;;;;;;5095848;28;20028;-73
2023/02/24 03:52:23;;;;;;;1999.90;999.90;;;9.40;99.90;;;;;;5095968;28;20039;-72
2023/02/24 03:55:08;;;;;;;1999.90;999.90;;;9.40;99.90;;;;;;5094923;28;20555;-72
2023/02/24 03:57:54;;;;;;;1999.90;999.90;;;9.40;99.90;;;;;;5095349;28;20028;-73
2023/02/24 04:00:41;;;;;;;1999.90;999.90;;;9.40;99.90;;;;;;5095795;28;20024;-79
2023/02/24 04:03:33;;;;;;;1999.90;999.90;;;9.40;99.90;;;;;;5095249;28;20020;-73
2023/02/24 04:06:19;;;;;;;1999.90;999.90;;;9.40;99.90;;;;;;5095633;28;20507;-73
2023/02/24 04:09:00;;;;;;;1999.90;999.90;;;9.40;99.90;;;;;;5094569;28;20894;-72
2023/02/24 04:11:46;;;;;;;1999.90;999.90;;;9.40;99.90;;;;;;5095064;28;20040;-71
2023/02/24 04:14:32;;;;;;;1999.90;999.90;;;9.40;99.90;;;;;;5095469;28;20481;-76
2023/02/24 04:17:18;;;;;;;1999.90;999.90;;;9.40;99.90;;;;;;5094622;28;20032;-71
2023/02/24 04:19:46;;;;;;;1999.90;999.90;;;9.40;99.90;;;;;;5074910;28;20643;-71
2023/02/24 04:22:15;;;;;;;1999.90;999.90;;;9.40;99.90;;;;;;5074911;28;20047;-71
2023/02/24 04:24:43;;;;;;;1999.90;999.90;;;9.40;99.90;;;;;;5074925;28;20028;-77
2023/02/24 04:27:10;;;;;;;1999.90;999.90;;;9.40;99.90;;;;;;5074581;28;20027;-72
2023/02/24 04:29:45;;;;;;;1999.90;999.90;;;9.40;99.90;;;;;;5074671;28;20103;-72
2023/02/24 04:32:14;;;;;;;1999.90;999.90;;;9.40;99.90;;;;;;5074950;28;20447;-72
2023/02/24 04:34:41;;;;;;;1999.90;999.90;;;9.40;99.90;;;;;;5079149;28;20362;-72
2023/02/24 04:37:07;;;;;;;1999.90;999.90;;;9.30;99.90;;;;;;5109325;28;20028;-76
2023/02/24 04:39:37;;;;;;;1999.90;999.90;;;9.30;99.90;;;;;;5090308;28;20028;-76
2023/02/24 04:42:04;;;;;;;1999.90;999.90;;;9.30;99.90;;;;;;5094229;28;20425;-76
2023/02/24 04:44:31;;;;;;;1999.90;999.90;;;9.30;99.90;;;;;;5094447;28;20443;-71
2023/02/24 04:46:58;;;;;;;1999.90;999.90;;;9.30;99.90;;;;;;5094376;28;20097;-71
2023/02/24 04:49:24;;;;;;;1999.90;999.90;;;9.30;99.90;;;;;;5094678;28;20471;-71
2023/02/24 04:51:50;;;;;;;1999.90;999.90;;;9.30;99.90;;;;;;5094963;28;20055;-76
2023/02/24 04:54:18;;;;;;;1999.90;999.90;;;9.30;99.90;;;;;;5093971;28;20761;-76
2023/02/24 04:56:46;;;;;;;1999.90;999.90;;;9.30;99.90;;;;;;5092376;28;20031;-76
2023/02/24 04:59:13;;;;;;;1999.90;999.90;;;9.30;99.90;;;;;;5092977;28;20039;-71
2023/02/24 05:01:42;;;;;;;1999.90;999.90;;;9.30;99.90;;;;;;5094364;28;20052;-71
2023/02/24 05:04:08;;;;;;;1999.90;999.90;;;9.20;99.90;;;;;;5094597;28;20025;-75
2023/02/24 05:06:39;;;;;;;1999.90;999.90;;;9.30;99.90;;;;;;5094565;28;20028;-71
2023/02/24 05:09:12;;;;;;;1999.90;999.90;;;9.20;99.90;;;;;;5093906;28;20028;-71
2023/02/24 05:11:42;;;;;;;1999.90;999.90;;;9.20;99.90;;;;;;5093996;28;20531;-72
2023/02/24 05:14:15;;;;;;;1999.90;999.90;;;9.20;99.90;;;;;;5094346;28;20032;-72
2023/02/24 05:16:45;;;;;;;1999.90;999.90;;;9.30;99.90;;;;;;5094128;28;20107;-72
2023/02/24 05:22:05;;;;;;;1999.90;999.90;;;9.30;99.90;;;;;;5073807;28;20043;-70
2023/02/24 05:24:32;;;;;;;1999.90;999.90;;;9.30;99.90;;;;;;5073691;28;20491;-71
2023/02/24 05:26:58;;;;;;;1999.90;999.90;;;9.30;99.90;;;;;;5073560;28;20028;-72
2023/02/24 05:29:25;;;;;;;1999.90;999.90;;;9.30;99.90;;;;;;5073429;28;20125;-77
2023/02/24 05:31:55;;;;;;;1999.90;999.90;;;9.30;99.90;;;;;;5073827;28;20429;-76
2023/02/24 05:34:23;;;;;;;1999.90;999.90;;;8.60;99.90;;;;;;5073667;28;20078;-71
2023/02/24 05:36:48;;;;;;;1999.90;999.90;;;8.30;99.90;;;;;;5073399;28;20021;-70
2023/02/24 05:39:18;;;;;;;1999.90;999.90;;;8.10;99.90;;;;;;5080608;28;20462;-75
2023/02/24 05:41:47;;;;;;;1999.90;999.90;;;8.10;99.90;;;;;;5075347;28;20435;-75
2023/02/24 05:44:15;;;;;;;1999.90;999.90;;;8.10;99.90;;;;;;5093867;28;20035;-75
2023/02/24 05:46:43;;;;;;;1999.90;999.90;;;7.90;99.90;;;;;;5093149;28;20040;-71
2023/02/24 05:49:22;;;;;;;1999.90;999.90;;;7.90;99.90;;;;;;5093265;28;20031;-76
2023/02/24 05:51:55;;;;;;;1999.90;999.90;;;7.80;99.90;;;;;;5093433;28;20588;-72
2023/02/24 05:54:32;;;;;;;1999.90;999.90;;;7.70;99.90;;;;;;5093175;28;20445;-70
2023/02/24 05:57:11;;;;;;;1999.90;999.90;;;7.70;99.90;;;;;;5092735;28;20028;-70
2023/02/24 05:59:41;;;;;;;1999.90;999.90;;;7.70;99.90;;;;;;5090383;28;20069;-75
2023/02/24 06:02:12;;;;;;;1999.90;999.90;;;7.70;99.90;;;;;;5091892;28;20089;-71
2023/02/24 06:04:52;;;;;;;1999.90;999.90;;;7.60;99.90;;;;;;5093106;28;20028;-72
2023/02/24 06:07:24;;;;;;;1999.90;999.90;;;7.60;99.90;;;;;;5092831;28;20020;-72
2023/02/24 06:09:56;;;;;;;1999.90;999.90;;;7.60;99.90;;;;;;5092373;28;20489;-76
2023/02/24 06:12:32;;;;;;;1999.90;999.90;;;7.60;99.90;;;;;;5093037;28;20020;-71
2023/02/24 06:14:58;;;;;;;1999.90;999.90;;;7.60;99.90;;;;;;5092817;28;20027;-72
2023/02/24 06:17:26;;;;;;;1999.90;999.90;;;7.60;99.90;;;;;;5090801;28;20027;-72
2023/02/24 06:19:52;;;;;;;1999.90;999.90;;;7.60;99.90;;;;;;5072780;28;20024;-71
2023/02/24 06:22:21;;;;;;;1999.90;999.90;;;7.60;99.90;;;;;;5072641;28;20052;-75
2023/02/24 06:24:48;;;;;;;1999.90;999.90;;;7.60;99.90;;;;;;5072584;28;20032;-72
2023/02/24 06:27:20;;;;;;;1999.90;999.90;;;7.60;99.90;;;;;;5072076;28;20024;-75
2023/02/24 06:29:50;;;;;;;1999.90;999.90;;;7.60;99.90;;;;;;5071424;28;20024;-74
2023/02/24 06:32:17;;;;;;;1999.90;999.90;;;7.60;99.90;;;;;;5078310;28;20093;-76
2023/02/24 06:34:43;;;;;;;1999.90;999.90;;;7.60;99.90;;;;;;5077044;28;20070;-76
2023/02/24 06:37:11;;;;;;;1999.90;999.90;;;7.60;99.90;;;;;;5092437;28;20019;-72
2023/02/24 06:39:37;;;;;;;1999.90;999.90;;;7.50;99.90;;;;;;5097094;28;20556;-72
2023/02/24 06:42:04;;;;;;;1999.90;999.90;;;7.50;99.90;;;;;;5074019;28;20031;-76
2023/02/24 06:44:35;;;;;;;1999.90;999.90;;;7.50;99.90;;;;;;5072003;28;20077;-77
2023/02/24 06:47:01;;;;;;;1999.90;999.90;;;7.50;99.90;;;;;;5089591;28;20477;-75
2023/02/24 06:49:27;;;;;;;1999.90;999.90;;;7.50;99.90;;;;;;5103490;28;20019;-72
2023/02/24 06:51:54;;;;;;;1999.90;999.90;;;7.40;99.90;;;;;;5112190;28;20036;-75
2023/02/24 06:54:27;;;;;;;1999.90;999.90;;;7.30;99.90;;;;;;5112490;28;20069;-75
2023/02/24 06:56:53;;;;;;;1999.90;999.90;;;7.20;99.90;;;;;;5093287;28;20105;-75
2023/02/24 06:59:21;;;;;;;1999.90;999.90;;;7.20;99.90;;;;;;5089717;28;20028;-75
2023/02/24 07:01:48;;;;;;;1999.90;999.90;;;7.10;99.90;;;;;;5087658;28;20028;-72
2023/02/24 07:06:43;;;;;;;1999.90;999.90;;;7.10;99.90;;;;;;5095168;28;20103;-75
2023/02/24 07:09:12;;;;;;;1999.90;999.90;;;7.10;99.90;;;;;;5096711;28;20122;-71
2023/02/24 07:11:42;;;;;;;1999.90;999.90;;;7.10;99.90;;;;;;5096042;28;20407;-72
2023/02/24 07:14:10;;;;;;;1999.90;999.90;;;7.10;99.90;;;;;;5097171;28;20024;-77
2023/02/24 07:16:36;;;;;;;1999.90;999.90;;;7.10;99.90;;;;;;5090869;28;20496;-72
2023/02/24 07:19:09;;;;;;;1999.90;999.90;;;7.10;99.90;;;;;;5088511;28;20027;-72
2023/02/24 07:21:38;;;;;;;1999.90;999.90;;;7.00;99.90;;;;;;5088807;28;20138;-73
2023/02/24 07:24:07;;;;;;;1999.90;999.90;;;7.00;99.90;;;;;;5086685;28;20065;-80
2023/02/24 07:26:33;;;;;;;1999.90;999.90;;;6.90;99.90;;;;;;5090570;28;20020;-72
2023/02/24 07:29:03;;;;;;;1999.90;999.90;;;6.90;99.90;;;;;;5070731;28;20036;-78
2023/02/24 07:31:33;;;;;;;1999.90;999.90;;;6.80;99.90;;;;;;5087412;28;20032;-72
2023/02/24 07:34:00;;;;;;;1999.90;999.90;;;6.70;99.90;;;;;;5088287;28;20120;-72
2023/02/24 07:36:28;;;;;;;1999.90;999.90;;;6.70;99.90;;;;;;5100005;28;20104;-72
2023/02/24 07:39:00;;;;;;;1999.90;999.90;;;6.60;99.90;;;;;;5092087;28;20032;-72
2023/02/24 07:41:26;;;;;;;1999.90;999.90;;;6.70;99.90;;;;;;5090843;28;20037;-71
2023/02/24 07:43:53;;;;;;;1999.90;999.90;;;6.50;99.90;;;;;;5093941;28;20084;-77
2023/02/24 07:46:26;;;;;;;1999.90;999.90;;;6.50;99.90;;;;;;5091628;28;20047;-72
2023/02/24 07:48:53;;;;;;;1999.90;999.90;;;6.40;99.90;;;;;;5094296;28;20036;-76
2023/02/24 07:51:25;;;;;;;1999.90;999.90;;;6.50;99.90;;;;;;5094097;28;20040;-71
2023/02/24 07:53:55;;;;;;;1999.90;999.90;;;6.40;99.90;;;;;;5093169;28;20123;-71
2023/02/24 07:56:25;;;;;;;1999.90;999.90;;;6.50;99.90;;;;;;5084739;28;20036;-77
2023/02/24 07:58:58;;;;;;;1999.90;999.90;;;6.50;99.90;;;;;;5090619;28;20039;-77
2023/02/24 08:01:29;;;;;;;1999.90;999.90;;;6.40;99.90;;;;;;5088377;28;20043;-72
2023/02/24 08:04:00;;;;;;;1999.90;999.90;;;6.40;99.90;;;;;;5094003;28;20039;-72
2023/02/24 08:06:37;;;;;;;1999.90;999.90;;;6.40;99.90;;;;;;5081678;28;20079;-76
2023/02/24 08:09:17;;;;;;;1999.90;999.90;;;6.20;99.90;;;;;;5087158;28;20035;-76
2023/02/24 08:11:51;;;;;;;1999.90;999.90;;;6.20;99.90;;;;;;5092271;28;20063;-77
2023/02/24 08:14:26;;;;;;;1999.90;999.90;;;6.10;99.90;;;;;;5086956;28;20047;-72
2023/02/24 08:16:58;;;;;;;1999.90;999.90;;;6.10;99.90;;;;;;5086425;28;20028;-77
2023/02/24 08:19:31;;;;;;;1999.90;999.90;;;6.10;99.90;;;;;;5084136;28;20028;-77
2023/02/24 08:22:06;;;;;;;;;;;6.00;99.90;;;;;;5082679;28;20440;-76
2023/02/24 08:24:34;;;;;;;1999.90;999.90;;;6.00;99.90;;;;;;5085874;28;19912;-77
2023/02/24 08:27:03;;;;;;;1999.90;999.90;;;6.00;99.90;;;;;;5083179;28;20043;-72
2023/02/24 08:29:56;;;;;;;1999.90;999.90;;;6.00;99.90;;;;;;5080787;28;20032;-72
2023/02/24 08:32:23;;;;;;;1999.90;999.90;;;6.00;99.90;;;;;;5083432;28;20032;-76
2023/02/24 08:34:49;;;;;;;1999.90;999.90;;;6.00;99.90;;;;;;5080841;28;20023;-76
2023/02/24 08:37:15;;;;;;;1999.90;999.90;;;6.00;99.90;;;;;;5077426;28;20050;-77
2023/02/24 08:39:42;;;;;;;1999.90;999.90;;;6.00;99.90;;;;;;5077668;28;20645;-72
2023/02/24 08:42:08;;;;;;;1999.90;999.90;;;5.90;99.90;;;;;;5081525;28;20162;-72
2023/02/24 08:44:36;;;;;;;1999.90;999.90;;;5.80;99.90;;;;;;5084429;28;20024;-77
2023/02/24 08:47:04;;;;;;;1999.90;999.90;;;5.90;99.90;;;;;;5082928;28;21496;-77
2023/02/24 08:49:32;;;;;;;1999.90;999.90;;;5.90;99.90;;;;;;5085051;28;20070;-78
2023/02/24 08:52:01;;;;;;;1999.90;999.90;;;5.80;99.90;;;;;;5081691;28;20512;-72
2023/02/24 08:54:30;;;;;;;1999.90;999.90;;;5.90;99.90;;;;;;5086776;28;20028;-72
2023/02/24 08:57:06;;;;;;;1999.90;999.90;;;5.90;99.90;;;;;;5084607;28;20040;-72
2023/02/24 08:59:36;;;;;;;1999.90;999.90;;;5.90;99.90;;;;;;5082106;28;20039;-72
2023/02/24 09:02:23;;;;;;;1999.90;999.90;;;5.90;99.90;;;;;;5076672;28;20039;-73
2023/02/24 09:05:02;;;;;;;1999.90;999.90;;;5.80;99.90;;;;;;5078587;28;20104;-72
2023/02/24 09:07:35;;;;;;;1999.90;999.90;;;5.80;99.90;;;;;;5081477;28;20020;-72
2023/02/24 09:10:04;;;;;;;1999.90;999.90;;;5.80;99.90;;;;;;5075298;28;20107;-73
2023/02/24 09:12:30;;;;;;;1999.90;999.90;;;5.80;99.90;;;;;;5085510;28;20020;-78
2023/02/24 09:15:00;;;;;;;1999.90;999.90;;;5.90;99.90;;;;;;5083006;28;20504;-72
2023/02/24 09:17:48;;;;;;;1999.90;999.90;;;5.90;99.90;;;;;;5080065;28;20451;-76
2023/02/24 09:23:01;;;;;;;1999.90;999.90;;;6.00;99.90;;;;;;5080275;28;20043;-72
2023/02/24 09:25:40;;;;;;;1999.90;999.90;;;6.10;99.90;;;;;;5080394;28;20020;-75
2023/02/24 09:28:07;;;;;;;1999.90;999.90;;;6.20;99.90;;;;;;5084662;28;20105;-75
2023/02/24 09:30:36;;;;;;;1999.90;999.90;;;6.20;99.90;;;;;;5083450;28;20541;-75
2023/02/24 09:33:19;;;;;;;1999.90;999.90;;;6.10;99.90;;;;;;5077942;28;20044;-73
2023/02/24 09:36:11;;;;;;;1999.90;999.90;;;6.20;99.90;;;;;;5081254;28;20028;-74
2023/02/24 09:41:52;;;;;;;1999.90;999.90;;;6.10;99.90;;;;;;5075358;28;20035;-73
2023/02/24 09:44:22;;;;;;;1999.90;999.90;;;6.20;99.90;;;;;;5076052;28;20162;-78
2023/02/24 09:47:07;;;;;;;1999.90;999.90;;;6.40;99.90;;;;;;5086144;28;20139;-78
2023/02/24 09:49:45;;;;;;;1999.90;999.90;;;6.50;99.90;;;;;;5079589;28;20080;-77
2023/02/24 09:52:17;;;;;;;1999.90;999.90;;;6.60;99.90;;;;;;5077768;28;20485;-75
2023/02/24 09:55:17;;;;;;;1999.90;999.90;;;6.50;99.90;;;;;;5076046;28;20123;-77
2023/02/24 09:58:22;;;;;;;1999.90;999.90;;;6.50;99.90;;;;;;5081718;28;20036;-80
2023/02/24 10:00:42;;;;;;;1999.90;999.90;;;6.60;99.90;;;;;;5082903;28;20036;-74
2023/02/24 10:03:18;;;;;;;;;;;6.50;99.90;;;;;;5084952;28;20508;-79
2023/02/24 10:06:10;;;;;;;1999.90;999.90;;;6.50;99.90;;;;;;5083323;28;19916;-79
2023/02/24 10:08:42;;;;;;;1999.90;999.90;;;6.50;99.90;;;;;;5075408;28;20474;-79
2023/02/24 10:11:11;;;;;;;1999.90;999.90;;;6.40;99.90;;;;;;5080882;28;20339;-73
2023/02/24 10:13:52;;;;;;;1999.90;999.90;;;6.30;99.90;;;;;;5076477;28;20024;-78
2023/02/24 10:16:22;;;;;;;1999.90;999.90;;;6.50;99.90;;;;;;5076001;28;20027;-74
2023/02/24 10:19:22;;;;;;;1999.90;999.90;;;6.60;99.90;;;;;;5078226;28;20043;-74
2023/02/24 10:22:01;;;;;;;1999.90;999.90;;;6.50;99.90;;;;;;5077155;28;20059;-74
2023/02/24 10:24:40;;;;;;;1999.90;999.90;;;6.50;99.90;;;;;;5081760;28;20020;-82
2023/02/24 10:27:14;;;;;;;1999.90;999.90;;;6.60;99.90;;;;;;5073036;28;20598;-75
2023/02/24 10:30:09;;;;;;;1999.90;999.90;;;6.60;99.90;;;;;;5076725;28;20040;-75
2023/02/24 10:32:57;;;;;;;1999.90;999.90;;;6.80;99.90;;;;;;5078273;28;20042;-75
2023/02/24 10:35:24;;;;;;;1999.90;999.90;;;6.90;99.90;;;;;;5076742;28;20571;-81
2023/02/24 10:37:52;;;;;;;1999.90;999.90;;;6.90;99.90;;;;;;5079872;28;20292;-74
2023/02/24 10:40:42;;;;;;;1999.90;999.90;;;7.00;99.90;;;;;;5082052;28;20020;-75
2023/02/24 10:43:16;;;;;;;1999.90;999.90;;;7.10;99.90;;;;;;5082702;28;20031;-82
2023/02/24 10:45:46;;;;;;;1999.90;999.90;;;7.30;99.90;;;;;;5080997;28;20028;-82
2023/02/24 10:48:25;;;;;;;1999.90;999.90;;;7.20;99.90;;;;;;5086048;28;20074;-75
2023/02/24 10:50:53;;;;;;;1999.90;999.90;;;7.30;99.90;;;;;;5080090;28;20067;-75
2023/02/24 10:53:28;;;;;;;1999.90;999.90;;;7.30;99.90;;;;;;5072325;28;20028;-80
2023/02/24 10:56:25;;;;;;;1999.90;999.90;;;7.30;99.90;;;;;;5084765;28;20031;-81
2023/02/24 11:01:53;;;;;;;1999.90;999.90;;;7.30;99.90;;;;;;5077716;28;20500;-74
2023/02/24 11:07:08;;;;;;;;;;;7.50;99.90;;;;;;5081906;28;20063;-81
2023/02/24 11:09:42;;;;;;;1999.90;999.90;;;7.70;99.90;;;;;;5079034;28;19921;-82
2023/02/24 11:18:22;;;;;;;1999.90;999.90;;;8.00;99.90;;;;;;5086428;28;20047;-74
2023/02/24 11:20:53;;;;;;;1999.90;999.90;;;8.00;99.90;;;;;;5081031;28;20031;-76
2023/02/24 11:23:23;;;;;;;1999.90;999.90;;;7.90;99.90;;;;;;5080795;28;20024;-80
2023/02/24 11:25:53;;;;;;;1999.90;999.90;;;7.80;99.90;;;;;;5084063;28;20111;-81
2023/02/24 11:28:45;;;;;;;1999.90;999.90;;;7.90;99.90;;;;;;5076930;28;20028;-75
2023/02/24 11:31:16;;;;;;;1999.90;999.90;;;8.00;99.90;;;;;;5074718;28;20028;-80
2023/02/24 11:34:03;;;;;;;1999.90;999.90;;;7.70;99.90;;;;;;5078621;28;20116;-80
2023/02/24 11:36:36;;;;;;;1999.90;999.90;;;7.70;99.90;;;;;;5080096;28;20024;-80
2023/02/24 11:39:23;;;;;;;1999.90;999.90;;;7.80;99.90;;;;;;5088935;28;20028;-81
2023/02/24 11:41:54;;;;;;;1999.90;999.90;;;7.90;99.90;;;;;;5088166;28;20087;-74
2023/02/24 11:44:43;;;;;;;1999.90;999.90;;;8.10;99.90;;;;;;5082707;28;20013;-80
2023/02/24 11:47:14;;;;;;;1999.90;999.90;;;8.20;99.90;;;;;;5082834;28;20488;-74
2023/02/24 11:49:54;;;;;;;1999.90;999.90;;;8.30;99.90;;;;;;5084492;28;20369;-79
2023/02/24 11:52:27;;;;;;;1999.90;999.90;;;8.40;99.90;;;;;;5088141;28;20125;-79
2023/02/24 11:54:55;;;;;;;1999.90;999.90;;;8.70;99.90;;;;;;5081250;28;20432;-79
2023/02/24 11:57:29;;;;;;;1999.90;999.90;;;8.90;99.90;;;;;;5090844;28;20040;-78
2023/02/24 12:00:12;;;;;;;1999.90;999.90;;;9.00;99.90;;;;;;5086119;28;20038;-74
2023/02/24 12:02:46;;;;;;;1999.90;999.90;;;9.00;99.90;;;;;;5082471;28;20499;-74
2023/02/24 12:05:25;;;;;;;1999.90;999.90;;;8.90;99.90;;;;;;5084686;28;20443;-79
2023/02/24 12:08:01;;;;;;;1999.90;999.90;;;8.60;99.90;;;;;;5074209;28;20105;-75
2023/02/24 12:10:47;;;;;;;1999.90;999.90;;;8.30;99.90;;;;;;5086677;28;20027;-79
2023/02/24 12:13:42;;;;;;;1999.90;999.90;;;8.00;99.90;;;;;;5085234;28;20341;-78
2023/02/24 12:16:32;;;;;;;1999.90;999.90;;;8.10;99.90;;;;;;5090604;28;20426;-78
2023/02/24 12:19:22;;;;;;;1999.90;999.90;;;8.30;99.90;;;;;;5086979;28;20029;-74
2023/02/24 12:21:58;;;;;;;1999.90;999.90;;;8.20;99.90;;;;;;5078929;28;20145;-74
2023/02/24 12:24:24;;;;;;;1999.90;999.90;;;8.40;99.90;;;;;;5086052;28;20416;-73
2023/02/24 12:27:17;;;;;;;1999.90;999.90;;;8.60;99.90;;;;;;5084158;28;20020;-74
2023/02/24 12:30:05;;;;;;;1999.90;999.90;;;8.60;99.90;;;;;;5084312;28;20032;-79
2023/02/24 12:33:00;;;;;;;1999.90;999.90;;;8.60;99.90;;;;;;5097811;28;20032;-74
2023/02/24 12:36:08;;;;;;;1999.90;999.90;;;8.60;99.90;;;;;;5082968;28;20457;-79
2023/02/24 12:38:59;;;;;;;1999.90;999.90;;;8.60;99.90;;;;;;5041021;28;20044;-74
2023/02/24 12:41:48;;;;;;;1999.90;999.90;;;8.50;99.90;;;;;;5075515;28;20024;-79
2023/02/24 12:44:32;;;;;;;1999.90;999.90;;;8.80;99.90;;;;;;5082315;28;20104;-79
2023/02/24 12:47:19;;;;;;;1999.90;999.90;;;9.10;99.90;;;;;;5094334;28;20088;-80
2023/02/24 12:49:54;;;;;;;1999.90;999.90;;;9.40;99.90;;;;;;5086736;28;20060;-75
2023/02/24 12:52:32;;;;;;;1999.90;999.90;;;9.30;99.90;;;;;;5089361;28;20036;-74
2023/02/24 12:55:07;;;;;;;1999.90;999.90;;;9.40;99.90;;;;;;5085329;28;20036;-79
2023/02/24 12:58:00;;;;;;;1999.90;999.90;;;9.30;99.90;;;;;;5087799;28;20036;-79
2023/02/24 13:00:34;;;;;;;1999.90;999.90;;;9.00;99.90;;;;;;5079520;28;20036;-80
2023/02/24 13:03:47;;;;;;;1999.90;999.90;;;8.90;99.90;;;;;;5081474;28;20021;-80
2023/02/24 13:06:23;;;;;;;1999.90;999.90;;;8.70;99.90;;;;;;5045791;28;20032;-79
2023/02/24 13:09:13;;;;;;;1999.90;999.90;;;8.40;99.90;;;;;;5089281;28;20089;-79
2023/02/24 13:11:54;;;;;;;1999.90;999.90;;;8.40;99.90;;;;;;5085214;28;20089;-78